SWU1914 LIPB-LIMJ
Flight info
| Callsign | SWU1914 |
|---|---|
| Flight time | 1h 28m |
| Altitude | 19000 |
| Route | ADOSA DCT BEKAN DCT MONEB |
| Aircraft | DH8D/M-SDE2E3FGRY/H |
Departure
| Time | 2026-04-21 19:34 |
|---|---|
| Airport | Bolzano Airport (LIPB) |
Arrival
| Time | 2026-04-21 21:02 |
|---|---|
| Airport | Genoa Cristoforo Colombo Airport (LIMJ) |
| Time | Latitude | Longitude | Altitude | Speed | Heading |
|---|---|---|---|---|---|
| 2026-04-21 18:45 | 46.46374 | 11.32912 | 824 ft | 0 kts | 100° |
| 2026-04-21 19:30 | 46.46373 | 11.32914 | 821 ft | 0 kts | 111° |
| 2026-04-21 19:30 | 46.46367 | 11.32920 | 821 ft | 1 kts | 171° |
| 2026-04-21 19:30 | 46.46363 | 11.32906 | 821 ft | 2 kts | 284° |
| 2026-04-21 19:31 | 46.46373 | 11.32872 | 820 ft | 4 kts | 308° |
| 2026-04-21 19:31 | 46.46405 | 11.32863 | 820 ft | 5 kts | 5° |
| 2026-04-21 19:31 | 46.46441 | 11.32871 | 820 ft | 5 kts | 9° |
| 2026-04-21 19:31 | 46.46479 | 11.32881 | 820 ft | 5 kts | 10° |
| 2026-04-21 19:32 | 46.46517 | 11.32892 | 820 ft | 5 kts | 11° |
| 2026-04-21 19:32 | 46.46559 | 11.32903 | 820 ft | 6 kts | 10° |
| 2026-04-21 19:32 | 46.46602 | 11.32915 | 820 ft | 6 kts | 9° |
| 2026-04-21 19:32 | 46.46645 | 11.32925 | 820 ft | 6 kts | 9° |
| 2026-04-21 19:33 | 46.46679 | 11.32900 | 820 ft | 6 kts | 292° |
| 2026-04-21 19:33 | 46.46687 | 11.32831 | 820 ft | 6 kts | 251° |
| 2026-04-21 19:33 | 46.46651 | 11.32805 | 820 ft | 0 kts | 189° |
| 2026-04-21 19:33 | 46.46552 | 11.32778 | 819 ft | 43 kts | 191° |
| 2026-04-21 19:34 | 46.46012 | 11.32636 | 817 ft | 119 kts | 190° |
| 2026-04-21 19:34 | 46.44996 | 11.32347 | 1129 ft | 164 kts | 189° |
| 2026-04-21 19:34 | 46.43828 | 11.31907 | 1763 ft | 188 kts | 192° |
| 2026-04-21 19:34 | 46.42578 | 11.31500 | 2838 ft | 184 kts | 192° |
| 2026-04-21 19:35 | 46.41397 | 11.30805 | 3473 ft | 190 kts | 210° |
| 2026-04-21 19:35 | 46.39167 | 11.28695 | 4680 ft | 197 kts | 212° |
| 2026-04-21 19:35 | 46.37999 | 11.27665 | 5340 ft | 197 kts | 203° |
| 2026-04-21 19:36 | 46.36707 | 11.27071 | 6025 ft | 196 kts | 193° |
| 2026-04-21 19:36 | 46.35339 | 11.26542 | 6421 ft | 224 kts | 194° |
| 2026-04-21 19:36 | 46.33790 | 11.25911 | 7096 ft | 234 kts | 195° |
| 2026-04-21 19:36 | 46.32188 | 11.25243 | 7510 ft | 246 kts | 195° |
| 2026-04-21 19:37 | 46.30540 | 11.24537 | 8107 ft | 250 kts | 195° |
| 2026-04-21 19:37 | 46.28892 | 11.23821 | 8751 ft | 251 kts | 196° |
| 2026-04-21 19:37 | 46.27221 | 11.23087 | 9351 ft | 254 kts | 197° |
| 2026-04-21 19:37 | 46.25511 | 11.22331 | 9929 ft | 258 kts | 197° |
| 2026-04-21 19:38 | 46.23795 | 11.21568 | 10538 ft | 261 kts | 198° |
| 2026-04-21 19:38 | 46.22069 | 11.20799 | 11133 ft | 262 kts | 198° |
| 2026-04-21 19:38 | 46.20287 | 11.20005 | 11640 ft | 266 kts | 198° |
| 2026-04-21 19:38 | 46.18549 | 11.19231 | 12216 ft | 266 kts | 198° |
| 2026-04-21 19:39 | 46.16764 | 11.18432 | 12708 ft | 269 kts | 199° |
| 2026-04-21 19:39 | 46.14965 | 11.17628 | 13189 ft | 272 kts | 199° |
| 2026-04-21 19:39 | 46.13150 | 11.16816 | 13672 ft | 273 kts | 199° |
| 2026-04-21 19:39 | 46.11350 | 11.16011 | 14145 ft | 274 kts | 200° |
| 2026-04-21 19:40 | 46.09529 | 11.15198 | 14626 ft | 275 kts | 200° |
| 2026-04-21 19:40 | 46.07705 | 11.14384 | 15037 ft | 277 kts | 201° |
| 2026-04-21 19:40 | 46.05837 | 11.13592 | 15441 ft | 280 kts | 197° |
| 2026-04-21 19:40 | 46.03916 | 11.13030 | 15842 ft | 283 kts | 195° |
| 2026-04-21 19:41 | 46.02007 | 11.12529 | 16260 ft | 283 kts | 195° |
| 2026-04-21 19:41 | 46.00042 | 11.12013 | 16642 ft | 285 kts | 195° |
| 2026-04-21 19:41 | 45.98100 | 11.11501 | 17027 ft | 286 kts | 195° |
| 2026-04-21 19:41 | 45.96154 | 11.10989 | 17446 ft | 286 kts | 196° |
| 2026-04-21 19:42 | 45.94186 | 11.10467 | 17810 ft | 287 kts | 197° |
| 2026-04-21 19:42 | 45.92223 | 11.09946 | 18161 ft | 288 kts | 197° |
| 2026-04-21 19:42 | 45.90257 | 11.09424 | 18515 ft | 289 kts | 198° |
| 2026-04-21 19:42 | 45.88270 | 11.08897 | 18824 ft | 292 kts | 198° |
| 2026-04-21 19:43 | 45.86237 | 11.08353 | 18975 ft | 300 kts | 198° |
| 2026-04-21 19:43 | 45.84166 | 11.07797 | 19011 ft | 311 kts | 197° |
| 2026-04-21 19:43 | 45.82023 | 11.07223 | 18996 ft | 317 kts | 197° |
| 2026-04-21 19:43 | 45.79910 | 11.06686 | 18966 ft | 295 kts | 197° |
| 2026-04-21 19:44 | 45.77969 | 11.06206 | 18966 ft | 271 kts | 198° |
| 2026-04-21 19:44 | 45.76200 | 11.05765 | 18960 ft | 244 kts | 199° |
| 2026-04-21 19:44 | 45.74629 | 11.05378 | 18945 ft | 214 kts | 200° |
| 2026-04-21 19:44 | 45.73265 | 11.05044 | 18867 ft | 186 kts | 202° |
| 2026-04-21 19:45 | 45.72000 | 11.04692 | 18567 ft | 193 kts | 204° |
| 2026-04-21 19:45 | 45.70645 | 11.04285 | 18720 ft | 195 kts | 202° |
| 2026-04-21 19:45 | 45.69305 | 11.03899 | 18885 ft | 203 kts | 202° |
| 2026-04-21 19:45 | 45.67883 | 11.03493 | 18965 ft | 215 kts | 202° |
| 2026-04-21 19:46 | 45.66361 | 11.03067 | 19002 ft | 229 kts | 201° |
| 2026-04-21 19:46 | 45.64890 | 11.02353 | 18975 ft | 216 kts | 227° |
| 2026-04-21 19:46 | 45.64098 | 11.00789 | 18989 ft | 185 kts | 256° |
| 2026-04-21 19:46 | 45.63644 | 10.99060 | 19003 ft | 185 kts | 258° |
| 2026-04-21 19:47 | 45.63206 | 10.97327 | 19004 ft | 186 kts | 257° |
| 2026-04-21 19:47 | 45.62771 | 10.95592 | 19001 ft | 188 kts | 257° |
| 2026-04-21 19:47 | 45.62328 | 10.93815 | 18999 ft | 191 kts | 257° |
| 2026-04-21 19:47 | 45.61881 | 10.92021 | 19000 ft | 193 kts | 257° |
| 2026-04-21 19:48 | 45.61429 | 10.90204 | 19002 ft | 195 kts | 257° |
| 2026-04-21 19:48 | 45.60978 | 10.88385 | 19004 ft | 198 kts | 257° |
| 2026-04-21 19:48 | 45.60512 | 10.86507 | 19001 ft | 201 kts | 257° |
| 2026-04-21 19:48 | 45.60042 | 10.84617 | 19003 ft | 203 kts | 257° |
| 2026-04-21 19:49 | 45.59568 | 10.82706 | 19012 ft | 206 kts | 257° |
| 2026-04-21 19:49 | 45.59086 | 10.80765 | 19013 ft | 209 kts | 257° |
| 2026-04-21 19:49 | 45.58598 | 10.78803 | 18998 ft | 212 kts | 257° |
| 2026-04-21 19:49 | 45.58110 | 10.76855 | 18985 ft | 206 kts | 257° |
| 2026-04-21 19:50 | 45.57629 | 10.74962 | 18979 ft | 198 kts | 257° |
| 2026-04-21 19:50 | 45.57179 | 10.73166 | 18982 ft | 189 kts | 258° |
| 2026-04-21 19:50 | 45.56745 | 10.71440 | 18992 ft | 180 kts | 258° |
| 2026-04-21 19:50 | 45.56332 | 10.69801 | 18980 ft | 170 kts | 258° |
| 2026-04-21 19:51 | 45.55948 | 10.68257 | 18987 ft | 165 kts | 259° |
| 2026-04-21 19:51 | 45.55572 | 10.66712 | 18996 ft | 165 kts | 259° |
| 2026-04-21 19:51 | 45.55192 | 10.65162 | 18993 ft | 165 kts | 259° |
| 2026-04-21 19:51 | 45.54809 | 10.63603 | 18996 ft | 167 kts | 259° |
| 2026-04-21 19:52 | 45.54422 | 10.62036 | 18997 ft | 169 kts | 259° |
| 2026-04-21 19:52 | 45.54026 | 10.60450 | 18991 ft | 169 kts | 259° |
| 2026-04-21 19:52 | 45.53634 | 10.58875 | 18993 ft | 169 kts | 259° |
| 2026-04-21 19:52 | 45.53239 | 10.57298 | 19002 ft | 170 kts | 259° |
| 2026-04-21 19:53 | 45.52840 | 10.55695 | 19003 ft | 170 kts | 259° |
| 2026-04-21 19:53 | 45.52447 | 10.54127 | 19004 ft | 170 kts | 258° |
| 2026-04-21 19:53 | 45.52046 | 10.52528 | 18997 ft | 170 kts | 259° |
| 2026-04-21 19:53 | 45.51647 | 10.50942 | 18998 ft | 170 kts | 258° |
| 2026-04-21 19:54 | 45.51250 | 10.49363 | 19006 ft | 170 kts | 259° |
| 2026-04-21 19:54 | 45.50851 | 10.47775 | 19009 ft | 170 kts | 259° |
| 2026-04-21 19:54 | 45.50455 | 10.46200 | 19011 ft | 171 kts | 259° |
| 2026-04-21 19:54 | 45.50052 | 10.44603 | 18994 ft | 171 kts | 259° |
| 2026-04-21 19:55 | 45.49651 | 10.43013 | 18995 ft | 171 kts | 259° |
| 2026-04-21 19:55 | 45.49248 | 10.41415 | 19002 ft | 171 kts | 259° |
| 2026-04-21 19:55 | 45.48846 | 10.39824 | 19006 ft | 171 kts | 259° |
| 2026-04-21 19:55 | 45.48440 | 10.38213 | 19004 ft | 171 kts | 259° |
| 2026-04-21 19:56 | 45.48040 | 10.36631 | 19002 ft | 171 kts | 259° |
| 2026-04-21 19:56 | 45.47635 | 10.35032 | 19004 ft | 172 kts | 259° |
| 2026-04-21 19:56 | 45.47227 | 10.33418 | 19002 ft | 173 kts | 259° |
| 2026-04-21 19:56 | 45.46822 | 10.31817 | 19007 ft | 173 kts | 258° |
| 2026-04-21 19:57 | 45.46411 | 10.30194 | 19002 ft | 175 kts | 258° |
| 2026-04-21 19:57 | 45.45993 | 10.28550 | 18999 ft | 176 kts | 258° |
| 2026-04-21 19:57 | 45.45581 | 10.26923 | 18995 ft | 177 kts | 258° |
| 2026-04-21 19:57 | 45.45157 | 10.25256 | 19000 ft | 178 kts | 258° |
| 2026-04-21 19:58 | 45.44736 | 10.23598 | 19001 ft | 180 kts | 259° |
| 2026-04-21 19:58 | 45.44313 | 10.21936 | 19007 ft | 180 kts | 259° |
| 2026-04-21 19:58 | 45.43881 | 10.20247 | 18993 ft | 179 kts | 258° |
| 2026-04-21 19:58 | 45.43464 | 10.18638 | 18971 ft | 170 kts | 258° |
| 2026-04-21 19:59 | 45.43066 | 10.17113 | 18972 ft | 159 kts | 259° |
| 2026-04-21 19:59 | 45.42693 | 10.15672 | 18940 ft | 149 kts | 259° |
| 2026-04-21 19:59 | 45.42344 | 10.14299 | 18698 ft | 153 kts | 260° |
| 2026-04-21 19:59 | 45.41986 | 10.12842 | 18584 ft | 156 kts | 259° |
| 2026-04-21 20:00 | 45.41624 | 10.11414 | 18761 ft | 150 kts | 261° |
| 2026-04-21 20:00 | 45.41277 | 10.09996 | 18902 ft | 156 kts | 261° |
| 2026-04-21 20:00 | 45.40910 | 10.08541 | 18958 ft | 157 kts | 259° |
| 2026-04-21 20:00 | 45.40534 | 10.07061 | 18985 ft | 160 kts | 260° |
| 2026-04-21 20:01 | 45.40152 | 10.05560 | 18989 ft | 164 kts | 259° |
| 2026-04-21 20:01 | 45.39757 | 10.04017 | 18991 ft | 168 kts | 259° |
| 2026-04-21 20:01 | 45.39350 | 10.02428 | 18989 ft | 173 kts | 259° |
| 2026-04-21 20:01 | 45.38932 | 10.00800 | 18986 ft | 179 kts | 259° |
| 2026-04-21 20:02 | 45.38498 | 9.99116 | 18988 ft | 184 kts | 258° |
| 2026-04-21 20:02 | 45.38054 | 9.97401 | 18992 ft | 187 kts | 258° |
| 2026-04-21 20:02 | 45.37600 | 9.95652 | 18991 ft | 189 kts | 258° |
| 2026-04-21 20:02 | 45.37145 | 9.93896 | 18986 ft | 192 kts | 258° |
| 2026-04-21 20:03 | 45.36676 | 9.92082 | 18982 ft | 195 kts | 258° |
| 2026-04-21 20:03 | 45.36205 | 9.90265 | 18983 ft | 197 kts | 258° |
| 2026-04-21 20:03 | 45.35728 | 9.88421 | 18983 ft | 200 kts | 258° |
| 2026-04-21 20:03 | 45.35246 | 9.86560 | 18981 ft | 203 kts | 258° |
| 2026-04-21 20:04 | 45.34760 | 9.84683 | 18981 ft | 205 kts | 258° |
| 2026-04-21 20:04 | 45.34261 | 9.82759 | 18987 ft | 208 kts | 258° |
| 2026-04-21 20:04 | 45.33758 | 9.80820 | 18987 ft | 210 kts | 258° |
| 2026-04-21 20:04 | 45.33254 | 9.78873 | 18987 ft | 213 kts | 257° |
| 2026-04-21 20:05 | 45.32710 | 9.76901 | 18980 ft | 219 kts | 251° |
| 2026-04-21 20:05 | 45.31601 | 9.75288 | 18996 ft | 239 kts | 222° |
| 2026-04-21 20:05 | 45.30127 | 9.74168 | 18986 ft | 246 kts | 218° |
| 2026-04-21 20:05 | 45.28606 | 9.73076 | 18971 ft | 244 kts | 218° |
| 2026-04-21 20:06 | 45.27085 | 9.71980 | 18970 ft | 245 kts | 218° |
| 2026-04-21 20:06 | 45.25563 | 9.70876 | 18975 ft | 246 kts | 218° |
| 2026-04-21 20:06 | 45.24031 | 9.69763 | 18973 ft | 243 kts | 218° |
| 2026-04-21 20:06 | 45.22551 | 9.68694 | 18965 ft | 236 kts | 219° |
| 2026-04-21 20:07 | 45.21125 | 9.67662 | 18967 ft | 228 kts | 219° |
| 2026-04-21 20:07 | 45.19730 | 9.66648 | 18961 ft | 220 kts | 220° |
| 2026-04-21 20:07 | 45.18410 | 9.65687 | 18954 ft | 211 kts | 221° |
| 2026-04-21 20:07 | 45.17132 | 9.64756 | 18951 ft | 203 kts | 221° |
| 2026-04-21 20:08 | 45.15880 | 9.63831 | 18950 ft | 199 kts | 222° |
| 2026-04-21 20:08 | 45.14652 | 9.62916 | 18964 ft | 200 kts | 222° |
| 2026-04-21 20:08 | 45.13435 | 9.62006 | 18967 ft | 202 kts | 222° |
| 2026-04-21 20:08 | 45.12182 | 9.61073 | 18969 ft | 204 kts | 221° |
| 2026-04-21 20:09 | 45.10901 | 9.60124 | 18964 ft | 207 kts | 221° |
| 2026-04-21 20:09 | 45.09631 | 9.59186 | 18957 ft | 209 kts | 221° |
| 2026-04-21 20:09 | 45.08328 | 9.58225 | 18956 ft | 212 kts | 221° |
| 2026-04-21 20:09 | 45.07015 | 9.57259 | 18951 ft | 215 kts | 221° |
| 2026-04-21 20:10 | 45.05680 | 9.56278 | 18945 ft | 218 kts | 221° |
| 2026-04-21 20:10 | 45.04316 | 9.55278 | 18960 ft | 220 kts | 220° |
| 2026-04-21 20:10 | 45.02958 | 9.54282 | 18958 ft | 224 kts | 220° |
| 2026-04-21 20:10 | 45.01562 | 9.53259 | 18960 ft | 228 kts | 220° |
| 2026-04-21 20:11 | 45.00151 | 9.52226 | 18951 ft | 231 kts | 220° |
| 2026-04-21 20:11 | 44.98695 | 9.51161 | 18956 ft | 235 kts | 220° |
| 2026-04-21 20:11 | 44.97241 | 9.50099 | 18948 ft | 239 kts | 219° |
| 2026-04-21 20:11 | 44.95760 | 9.49019 | 18949 ft | 242 kts | 219° |
| 2026-04-21 20:12 | 44.94241 | 9.47910 | 18957 ft | 246 kts | 219° |
| 2026-04-21 20:12 | 44.92729 | 9.46808 | 18941 ft | 249 kts | 219° |
| 2026-04-21 20:12 | 44.91168 | 9.45672 | 18952 ft | 253 kts | 219° |
| 2026-04-21 20:12 | 44.89602 | 9.44532 | 18952 ft | 256 kts | 219° |
| 2026-04-21 20:13 | 44.88008 | 9.43373 | 18950 ft | 259 kts | 218° |
| 2026-04-21 20:13 | 44.86387 | 9.42194 | 18953 ft | 261 kts | 218° |
| 2026-04-21 20:13 | 44.84800 | 9.41047 | 18934 ft | 255 kts | 219° |
| 2026-04-21 20:13 | 44.83229 | 9.39926 | 18927 ft | 247 kts | 219° |
| 2026-04-21 20:14 | 44.81729 | 9.38853 | 18918 ft | 238 kts | 219° |
| 2026-04-21 20:14 | 44.80284 | 9.37819 | 18928 ft | 228 kts | 220° |
| 2026-04-21 20:14 | 44.78910 | 9.36823 | 18890 ft | 222 kts | 220° |
| 2026-04-21 20:14 | 44.77537 | 9.35829 | 18502 ft | 222 kts | 220° |
| 2026-04-21 20:15 | 44.76168 | 9.34836 | 18066 ft | 221 kts | 219° |
| 2026-04-21 20:15 | 44.74812 | 9.33853 | 17644 ft | 221 kts | 219° |
| 2026-04-21 20:15 | 44.73460 | 9.32874 | 17248 ft | 223 kts | 218° |
| 2026-04-21 20:15 | 44.72084 | 9.31868 | 17085 ft | 221 kts | 218° |
| 2026-04-21 20:16 | 44.70717 | 9.30876 | 16941 ft | 221 kts | 218° |
| 2026-04-21 20:16 | 44.69352 | 9.29886 | 16816 ft | 219 kts | 217° |
| 2026-04-21 20:16 | 44.67998 | 9.28905 | 16669 ft | 219 kts | 217° |
| 2026-04-21 20:16 | 44.66665 | 9.27942 | 16561 ft | 216 kts | 217° |
| 2026-04-21 20:17 | 44.65320 | 9.26969 | 16382 ft | 218 kts | 217° |
| 2026-04-21 20:17 | 44.63975 | 9.25997 | 16233 ft | 218 kts | 217° |
| 2026-04-21 20:17 | 44.62627 | 9.25024 | 16102 ft | 216 kts | 217° |
| 2026-04-21 20:17 | 44.61307 | 9.23994 | 15914 ft | 216 kts | 220° |
| 2026-04-21 20:18 | 44.60032 | 9.22913 | 15807 ft | 214 kts | 221° |
| 2026-04-21 20:18 | 44.58761 | 9.21832 | 15660 ft | 214 kts | 220° |
| 2026-04-21 20:18 | 44.57489 | 9.20758 | 15501 ft | 215 kts | 220° |
| 2026-04-21 20:18 | 44.56211 | 9.19685 | 15388 ft | 213 kts | 220° |
| 2026-04-21 20:19 | 44.54940 | 9.18618 | 15252 ft | 212 kts | 219° |
| 2026-04-21 20:19 | 44.53676 | 9.17559 | 15120 ft | 211 kts | 219° |
| 2026-04-21 20:19 | 44.52417 | 9.16505 | 15013 ft | 210 kts | 219° |
| 2026-04-21 20:19 | 44.51192 | 9.15484 | 14963 ft | 204 kts | 219° |
| 2026-04-21 20:20 | 44.49984 | 9.14482 | 14936 ft | 199 kts | 220° |
| 2026-04-21 20:20 | 44.48798 | 9.13483 | 14935 ft | 202 kts | 220° |
| 2026-04-21 20:20 | 44.47579 | 9.12455 | 14943 ft | 206 kts | 220° |
| 2026-04-21 20:20 | 44.46337 | 9.11412 | 14956 ft | 210 kts | 220° |
| 2026-04-21 20:21 | 44.45061 | 9.10344 | 14939 ft | 215 kts | 219° |
| 2026-04-21 20:21 | 44.43765 | 9.09261 | 14932 ft | 220 kts | 219° |
| 2026-04-21 20:21 | 44.42393 | 9.08241 | 14928 ft | 230 kts | 206° |
| 2026-04-21 20:21 | 44.40800 | 9.07844 | 14949 ft | 241 kts | 193° |
| 2026-04-21 20:22 | 44.39106 | 9.07639 | 14937 ft | 240 kts | 192° |
| 2026-04-21 20:22 | 44.35860 | 9.07263 | 14920 ft | 228 kts | 193° |
| 2026-04-21 20:22 | 44.34306 | 9.07076 | 14919 ft | 220 kts | 193° |
| 2026-04-21 20:23 | 44.32801 | 9.06894 | 14915 ft | 212 kts | 193° |
| 2026-04-21 20:23 | 44.31357 | 9.06712 | 14900 ft | 204 kts | 193° |
| 2026-04-21 20:23 | 44.29962 | 9.06526 | 14916 ft | 205 kts | 193° |
| 2026-04-21 20:23 | 44.28552 | 9.06792 | 14827 ft | 212 kts | 155° |
| 2026-04-21 20:24 | 44.27293 | 9.07990 | 14951 ft | 221 kts | 145° |
| 2026-04-21 20:24 | 44.26046 | 9.09331 | 14924 ft | 225 kts | 145° |
| 2026-04-21 20:24 | 44.24824 | 9.10654 | 14910 ft | 219 kts | 145° |
| 2026-04-21 20:24 | 44.23624 | 9.11943 | 14917 ft | 215 kts | 145° |
| 2026-04-21 20:25 | 44.22444 | 9.13201 | 14924 ft | 215 kts | 145° |
| 2026-04-21 20:25 | 44.21264 | 9.14461 | 14912 ft | 210 kts | 146° |
| 2026-04-21 20:25 | 44.20123 | 9.15680 | 14869 ft | 205 kts | 146° |
| 2026-04-21 20:25 | 44.18989 | 9.16900 | 14681 ft | 209 kts | 143° |
| 2026-04-21 20:26 | 44.17790 | 9.18251 | 14922 ft | 232 kts | 144° |
| 2026-04-21 20:26 | 44.16492 | 9.19715 | 15446 ft | 247 kts | 143° |
| 2026-04-21 20:26 | 44.15093 | 9.21288 | 15760 ft | 268 kts | 143° |
| 2026-04-21 20:26 | 44.13609 | 9.22955 | 15863 ft | 279 kts | 143° |
| 2026-04-21 20:27 | 44.12071 | 9.24676 | 15902 ft | 280 kts | 143° |
| 2026-04-21 20:27 | 44.10574 | 9.26359 | 15904 ft | 275 kts | 143° |
| 2026-04-21 20:27 | 44.09106 | 9.28015 | 15910 ft | 270 kts | 143° |
| 2026-04-21 20:27 | 44.07664 | 9.29642 | 15919 ft | 265 kts | 143° |
| 2026-04-21 20:28 | 44.06247 | 9.31239 | 15915 ft | 260 kts | 143° |
| 2026-04-21 20:28 | 44.04858 | 9.32812 | 15913 ft | 255 kts | 143° |
| 2026-04-21 20:28 | 44.03482 | 9.34331 | 15906 ft | 249 kts | 150° |
| 2026-04-21 20:28 | 44.01956 | 9.35105 | 15894 ft | 227 kts | 186° |
| 2026-04-21 20:29 | 44.00522 | 9.34662 | 15897 ft | 198 kts | 225° |
| 2026-04-21 20:29 | 43.99708 | 9.33317 | 15914 ft | 177 kts | 259° |
| 2026-04-21 20:29 | 43.99373 | 9.31661 | 15925 ft | 182 kts | 264° |
| 2026-04-21 20:29 | 43.99075 | 9.29913 | 15927 ft | 191 kts | 264° |
| 2026-04-21 20:30 | 43.98775 | 9.28073 | 15938 ft | 201 kts | 264° |
| 2026-04-21 20:30 | 43.98462 | 9.26110 | 15925 ft | 210 kts | 264° |
| 2026-04-21 20:30 | 43.98152 | 9.24112 | 15917 ft | 215 kts | 264° |
| 2026-04-21 20:30 | 43.97841 | 9.22099 | 15916 ft | 216 kts | 264° |
| 2026-04-21 20:31 | 43.97528 | 9.20100 | 15908 ft | 211 kts | 264° |
| 2026-04-21 20:31 | 43.97213 | 9.18105 | 15905 ft | 206 kts | 264° |
| 2026-04-21 20:31 | 43.96904 | 9.16185 | 15905 ft | 201 kts | 264° |
| 2026-04-21 20:31 | 43.96597 | 9.14326 | 15900 ft | 195 kts | 264° |
| 2026-04-21 20:32 | 43.96295 | 9.12531 | 15900 ft | 190 kts | 264° |
| 2026-04-21 20:32 | 43.95985 | 9.10761 | 15845 ft | 188 kts | 264° |
| 2026-04-21 20:32 | 43.95675 | 9.08975 | 15652 ft | 192 kts | 264° |
| 2026-04-21 20:32 | 43.95368 | 9.07168 | 15501 ft | 194 kts | 264° |
| 2026-04-21 20:33 | 43.95068 | 9.05355 | 15395 ft | 193 kts | 264° |
| 2026-04-21 20:33 | 43.94766 | 9.03557 | 15296 ft | 193 kts | 264° |
| 2026-04-21 20:33 | 43.94465 | 9.01747 | 15211 ft | 192 kts | 264° |
| 2026-04-21 20:33 | 43.94299 | 8.99931 | 15052 ft | 188 kts | 279° |
| 2026-04-21 20:34 | 43.94490 | 8.98175 | 14964 ft | 184 kts | 284° |
| 2026-04-21 20:34 | 43.94714 | 8.96433 | 14930 ft | 185 kts | 284° |
| 2026-04-21 20:34 | 43.94951 | 8.94624 | 14921 ft | 196 kts | 284° |
| 2026-04-21 20:34 | 43.95206 | 8.92718 | 14922 ft | 206 kts | 284° |
| 2026-04-21 20:35 | 43.95477 | 8.90732 | 14919 ft | 211 kts | 284° |
| 2026-04-21 20:35 | 43.95751 | 8.88701 | 14904 ft | 211 kts | 284° |
| 2026-04-21 20:35 | 43.96016 | 8.86715 | 14901 ft | 206 kts | 284° |
| 2026-04-21 20:35 | 43.96271 | 8.84791 | 14902 ft | 201 kts | 284° |
| 2026-04-21 20:36 | 43.96519 | 8.82904 | 14897 ft | 196 kts | 284° |
| 2026-04-21 20:36 | 43.96753 | 8.81079 | 14893 ft | 191 kts | 284° |
| 2026-04-21 20:36 | 43.96983 | 8.79286 | 14895 ft | 185 kts | 284° |
| 2026-04-21 20:36 | 43.97431 | 8.77673 | 14884 ft | 174 kts | 312° |
| 2026-04-21 20:37 | 43.98445 | 8.76885 | 14895 ft | 169 kts | 342° |
| 2026-04-21 20:37 | 43.99597 | 8.76602 | 14907 ft | 170 kts | 344° |
| 2026-04-21 20:37 | 44.00799 | 8.76331 | 14916 ft | 177 kts | 345° |
| 2026-04-21 20:37 | 44.02026 | 8.76047 | 14922 ft | 185 kts | 345° |
| 2026-04-21 20:38 | 44.03350 | 8.75734 | 14926 ft | 197 kts | 344° |
| 2026-04-21 20:38 | 44.04733 | 8.75394 | 14924 ft | 208 kts | 344° |
| 2026-04-21 20:38 | 44.06159 | 8.75028 | 14911 ft | 210 kts | 344° |
| 2026-04-21 20:38 | 44.07585 | 8.74659 | 14905 ft | 205 kts | 344° |
| 2026-04-21 20:39 | 44.08976 | 8.74315 | 14908 ft | 200 kts | 344° |
| 2026-04-21 20:39 | 44.10346 | 8.73981 | 14824 ft | 199 kts | 344° |
| 2026-04-21 20:39 | 44.11697 | 8.73649 | 14707 ft | 200 kts | 344° |
| 2026-04-21 20:39 | 44.13086 | 8.73309 | 14605 ft | 200 kts | 344° |
| 2026-04-21 20:40 | 44.14458 | 8.72972 | 14493 ft | 200 kts | 344° |
| 2026-04-21 20:40 | 44.15830 | 8.72631 | 14408 ft | 200 kts | 345° |
| 2026-04-21 20:40 | 44.17202 | 8.72293 | 14300 ft | 200 kts | 344° |
| 2026-04-21 20:40 | 44.18563 | 8.71957 | 14211 ft | 200 kts | 344° |
| 2026-04-21 20:41 | 44.19950 | 8.71609 | 14089 ft | 201 kts | 344° |
| 2026-04-21 20:41 | 44.21330 | 8.71256 | 14000 ft | 200 kts | 344° |
| 2026-04-21 20:41 | 44.22695 | 8.70907 | 13918 ft | 199 kts | 345° |
| 2026-04-21 20:41 | 44.24060 | 8.70553 | 13803 ft | 200 kts | 344° |
| 2026-04-21 20:42 | 44.25438 | 8.70219 | 13712 ft | 202 kts | 351° |
| 2026-04-21 20:42 | 44.26827 | 8.70631 | 13549 ft | 217 kts | 24° |
| 2026-04-21 20:42 | 44.27916 | 8.72183 | 13352 ft | 233 kts | 57° |
| 2026-04-21 20:42 | 44.28275 | 8.74405 | 13218 ft | 243 kts | 90° |
| 2026-04-21 20:43 | 44.27786 | 8.76618 | 13062 ft | 246 kts | 123° |
| 2026-04-21 20:43 | 44.26689 | 8.78450 | 12945 ft | 245 kts | 134° |
| 2026-04-21 20:43 | 44.25531 | 8.80175 | 12899 ft | 244 kts | 134° |
| 2026-04-21 20:43 | 44.24368 | 8.81905 | 12810 ft | 244 kts | 134° |
| 2026-04-21 20:44 | 44.23203 | 8.83640 | 12728 ft | 243 kts | 134° |
| 2026-04-21 20:44 | 44.22049 | 8.85350 | 12649 ft | 243 kts | 134° |
| 2026-04-21 20:44 | 44.20890 | 8.87069 | 12584 ft | 243 kts | 134° |
| 2026-04-21 20:44 | 44.19736 | 8.88780 | 12508 ft | 243 kts | 134° |
| 2026-04-21 20:45 | 44.18583 | 8.90492 | 12451 ft | 241 kts | 134° |
| 2026-04-21 20:45 | 44.17442 | 8.92179 | 12346 ft | 242 kts | 134° |
| 2026-04-21 20:45 | 44.16288 | 8.93880 | 12302 ft | 240 kts | 134° |
| 2026-04-21 20:45 | 44.15148 | 8.95556 | 12243 ft | 240 kts | 134° |
| 2026-04-21 20:46 | 44.13988 | 8.97257 | 12174 ft | 239 kts | 134° |
| 2026-04-21 20:46 | 44.12858 | 8.98913 | 12115 ft | 238 kts | 134° |
| 2026-04-21 20:46 | 44.11718 | 9.00582 | 12015 ft | 232 kts | 134° |
| 2026-04-21 20:46 | 44.10616 | 9.02218 | 11471 ft | 234 kts | 134° |
| 2026-04-21 20:47 | 44.09527 | 9.03825 | 11041 ft | 227 kts | 134° |
| 2026-04-21 20:47 | 44.08444 | 9.05417 | 10540 ft | 226 kts | 134° |
| 2026-04-21 20:47 | 44.07375 | 9.06986 | 10052 ft | 223 kts | 134° |
| 2026-04-21 20:47 | 44.06313 | 9.08547 | 9564 ft | 221 kts | 134° |
| 2026-04-21 20:48 | 44.05280 | 9.10061 | 9092 ft | 219 kts | 134° |
| 2026-04-21 20:48 | 44.04239 | 9.11577 | 8621 ft | 215 kts | 134° |
| 2026-04-21 20:48 | 44.03214 | 9.13061 | 8144 ft | 212 kts | 134° |
| 2026-04-21 20:48 | 44.02206 | 9.14516 | 7687 ft | 210 kts | 134° |
| 2026-04-21 20:49 | 44.01200 | 9.15966 | 7266 ft | 210 kts | 134° |
| 2026-04-21 20:49 | 44.00195 | 9.17400 | 7073 ft | 204 kts | 134° |
| 2026-04-21 20:49 | 43.99200 | 9.18805 | 7001 ft | 205 kts | 134° |
| 2026-04-21 20:49 | 43.98366 | 9.20366 | 6944 ft | 202 kts | 108° |
| 2026-04-21 20:50 | 43.98266 | 9.22267 | 6854 ft | 199 kts | 77° |
| 2026-04-21 20:50 | 43.98602 | 9.24137 | 6802 ft | 200 kts | 74° |
| 2026-04-21 20:50 | 43.98954 | 9.26004 | 6764 ft | 200 kts | 74° |
| 2026-04-21 20:50 | 43.99308 | 9.27877 | 6714 ft | 201 kts | 74° |
| 2026-04-21 20:51 | 43.99663 | 9.29738 | 6662 ft | 202 kts | 74° |
| 2026-04-21 20:51 | 44.00274 | 9.31519 | 6377 ft | 212 kts | 43° |
| 2026-04-21 20:51 | 44.01614 | 9.32292 | 6202 ft | 213 kts | 1° |
| 2026-04-21 20:51 | 44.03089 | 9.32037 | 6084 ft | 217 kts | 349° |
| 2026-04-21 20:52 | 44.04578 | 9.31617 | 6035 ft | 218 kts | 349° |
| 2026-04-21 20:52 | 44.06055 | 9.31195 | 5982 ft | 216 kts | 349° |
| 2026-04-21 20:52 | 44.07483 | 9.30768 | 5948 ft | 202 kts | 348° |
| 2026-04-21 20:52 | 44.08843 | 9.30339 | 5966 ft | 201 kts | 348° |
| 2026-04-21 20:53 | 44.10225 | 9.29894 | 5948 ft | 203 kts | 348° |
| 2026-04-21 20:53 | 44.11588 | 9.29452 | 5945 ft | 204 kts | 348° |
| 2026-04-21 20:53 | 44.13000 | 9.28997 | 5873 ft | 211 kts | 348° |
| 2026-04-21 20:53 | 44.14448 | 9.28527 | 5809 ft | 215 kts | 348° |
| 2026-04-21 20:54 | 44.15916 | 9.28044 | 5764 ft | 219 kts | 348° |
| 2026-04-21 20:54 | 44.17358 | 9.27561 | 5532 ft | 212 kts | 347° |
| 2026-04-21 20:54 | 44.18792 | 9.27073 | 5160 ft | 207 kts | 348° |
| 2026-04-21 20:54 | 44.20160 | 9.26598 | 5030 ft | 203 kts | 348° |
| 2026-04-21 20:55 | 44.21555 | 9.26119 | 4983 ft | 206 kts | 348° |
| 2026-04-21 20:55 | 44.22956 | 9.25636 | 4968 ft | 209 kts | 348° |
| 2026-04-21 20:55 | 44.24379 | 9.25138 | 4960 ft | 211 kts | 348° |
| 2026-04-21 20:55 | 44.25812 | 9.24639 | 4950 ft | 212 kts | 347° |
| 2026-04-21 20:56 | 44.27232 | 9.24151 | 4951 ft | 212 kts | 348° |
| 2026-04-21 20:56 | 44.28663 | 9.23585 | 4944 ft | 214 kts | 338° |
| 2026-04-21 20:56 | 44.29881 | 9.22392 | 4959 ft | 214 kts | 322° |
| 2026-04-21 20:56 | 44.31036 | 9.21086 | 4961 ft | 215 kts | 323° |
| 2026-04-21 20:57 | 44.32218 | 9.19757 | 4959 ft | 216 kts | 323° |
| 2026-04-21 20:57 | 44.33340 | 9.18392 | 4945 ft | 218 kts | 313° |
| 2026-04-21 20:57 | 44.34084 | 9.16501 | 4799 ft | 224 kts | 291° |
| 2026-04-21 20:57 | 44.34539 | 9.14414 | 4506 ft | 226 kts | 288° |
| 2026-04-21 20:58 | 44.34989 | 9.12331 | 4141 ft | 224 kts | 288° |
| 2026-04-21 20:58 | 44.35450 | 9.10261 | 3781 ft | 223 kts | 290° |
| 2026-04-21 20:58 | 44.35916 | 9.08228 | 3447 ft | 221 kts | 290° |
| 2026-04-21 20:58 | 44.36370 | 9.06196 | 3129 ft | 218 kts | 289° |
| 2026-04-21 20:59 | 44.36814 | 9.04175 | 2820 ft | 213 kts | 289° |
| 2026-04-21 20:59 | 44.37225 | 9.02310 | 2552 ft | 193 kts | 289° |
| 2026-04-21 20:59 | 44.37604 | 9.00591 | 2228 ft | 178 kts | 289° |
| 2026-04-21 20:59 | 44.37950 | 8.99023 | 1956 ft | 159 kts | 289° |
| 2026-04-21 21:00 | 44.38257 | 8.97626 | 1697 ft | 146 kts | 290° |
| 2026-04-21 21:00 | 44.38588 | 8.96248 | 1701 ft | 151 kts | 292° |
| 2026-04-21 21:00 | 44.38925 | 8.94821 | 1448 ft | 154 kts | 289° |
| 2026-04-21 21:00 | 44.39221 | 8.93416 | 1210 ft | 148 kts | 289° |
| 2026-04-21 21:01 | 44.39507 | 8.92088 | 1004 ft | 143 kts | 290° |
| 2026-04-21 21:01 | 44.39800 | 8.90767 | 806 ft | 140 kts | 290° |
| 2026-04-21 21:01 | 44.40077 | 8.89502 | 613 ft | 134 kts | 290° |
| 2026-04-21 21:01 | 44.40365 | 8.88240 | 439 ft | 141 kts | 291° |
| 2026-04-21 21:02 | 44.40639 | 8.86930 | 268 ft | 141 kts | 291° |
| 2026-04-21 21:02 | 44.40910 | 8.85636 | 53 ft | 137 kts | 288° |
| 2026-04-21 21:02 | 44.41140 | 8.84473 | 20 ft | 98 kts | 288° |
| 2026-04-21 21:02 | 44.41254 | 8.83893 | 18 ft | 20 kts | 290° |
| 2026-04-21 21:03 | 44.41335 | 8.83756 | 18 ft | 12 kts | 323° |
| 2026-04-21 21:03 | 44.41382 | 8.83741 | 18 ft | 6 kts | 18° |
| 2026-04-21 21:03 | 44.41417 | 8.83773 | 18 ft | 5 kts | 52° |
| 2026-04-21 21:03 | 44.41423 | 8.83822 | 18 ft | 5 kts | 104° |
| 2026-04-21 21:04 | 44.41412 | 8.83870 | 18 ft | 5 kts | 107° |
| 2026-04-21 21:04 | 44.41401 | 8.83922 | 18 ft | 5 kts | 106° |
| 2026-04-21 21:04 | 44.41391 | 8.83975 | 18 ft | 5 kts | 106° |
| 2026-04-21 21:04 | 44.41380 | 8.84028 | 18 ft | 5 kts | 105° |
| 2026-04-21 21:05 | 44.41369 | 8.84083 | 18 ft | 7 kts | 105° |
| 2026-04-21 21:05 | 44.41359 | 8.84138 | 18 ft | 3 kts | 104° |
| 2026-04-21 21:05 | 44.41334 | 8.84263 | 18 ft | 18 kts | 105° |
| 2026-04-21 21:05 | 44.41327 | 8.84423 | 20 ft | 14 kts | 58° |
| 2026-04-21 21:06 | 44.41377 | 8.84516 | 21 ft | 10 kts | 54° |
| 2026-04-21 21:06 | 44.41411 | 8.84588 | 23 ft | 7 kts | 70° |
| 2026-04-21 21:06 | 44.41409 | 8.84659 | 26 ft | 11 kts | 104° |
| 2026-04-21 21:06 | 44.41388 | 8.84774 | 27 ft | 11 kts | 105° |
| 2026-04-21 21:07 | 44.41350 | 8.84824 | 27 ft | 7 kts | 193° |
| 2026-04-21 21:07 | 44.41312 | 8.84811 | 26 ft | 0 kts | 194° |